Aviation Digital Data Service (ADDS)

Output produced by METARs form (1809 UTC 18 August 2018)
found at http://aviationweather.gov/adds/metars/
 
KAEX 181720Z 1818/1918 27008KT P6SM FEW050 
     FM182000 24008KT P6SM VCTS SCT050CB SCT250 
     FM190100 18004KT P6SM SCT250